createdAt,value
2019-04-20T00:00:29.313Z,1013.44
2019-04-20T00:01:31.401Z,1013.45
2019-04-20T00:02:25.411Z,1013.46
2019-04-20T00:03:29.796Z,1013.49
2019-04-20T00:04:26.900Z,1013.5
2019-04-20T00:05:21.179Z,1013.46
2019-04-20T00:06:19.598Z,1013.46
2019-04-20T00:07:23.920Z,1013.48
2019-04-20T00:08:23.045Z,1013.45
2019-04-20T00:09:20.990Z,1013.41
2019-04-20T00:10:18.280Z,1013.4
2019-04-20T00:11:18.402Z,1013.41
2019-04-20T00:12:19.026Z,1013.4
2019-04-20T00:13:21.434Z,1013.33
2019-04-20T00:14:14.146Z,1013.34
2019-04-20T00:15:07.402Z,1013.32
2019-04-20T00:16:06.241Z,1013.33
2019-04-20T00:17:05.134Z,1013.33
2019-04-20T00:18:05.313Z,1013.33
2019-04-20T00:19:03.935Z,1013.3
2019-04-20T00:20:09.118Z,1013.26
2019-04-20T00:21:05.442Z,1013.25
2019-04-20T00:22:01.832Z,1013.27
2019-04-20T00:22:58.100Z,1013.28
2019-04-20T00:23:56.512Z,1013.35
2019-04-20T00:24:56.676Z,1013.29
2019-04-20T00:26:04.256Z,1013.29
2019-04-20T00:27:25.237Z,1013.29
2019-04-20T00:28:04.206Z,1013.31
2019-04-20T00:29:05.391Z,1013.28
2019-04-20T00:30:03.739Z,1013.28
2019-04-20T00:30:58.476Z,1013.29
2019-04-20T00:31:56.451Z,1013.27
2019-04-20T00:32:55.412Z,1013.25
2019-04-20T00:33:52.640Z,1013.28
2019-04-20T00:34:42.255Z,1013.29
2019-04-20T00:35:38.418Z,1013.31
2019-04-20T00:36:37.025Z,1013.3
2019-04-20T00:37:35.977Z,1013.3
2019-04-20T00:38:40.735Z,1013.3
2019-04-20T00:39:33.989Z,1013.3
2019-04-20T00:40:32.623Z,1013.31
2019-04-20T00:41:33.955Z,1013.39
2019-04-20T00:42:33.680Z,1013.26
2019-04-20T00:43:32.118Z,1013.24
2019-04-20T00:44:30.262Z,1013.27
2019-04-20T00:45:28.669Z,1013.25
2019-04-20T00:46:29.114Z,1013.22
2019-04-20T00:47:33.973Z,1013.29
2019-04-20T00:48:31.436Z,1013.25
2019-04-20T00:49:34.411Z,1013.26
2019-04-20T00:50:34.028Z,1013.24
2019-04-20T00:51:30.384Z,1013.21
2019-04-20T00:52:29.761Z,1013.22
2019-04-20T00:53:22.549Z,1013.23
2019-04-20T00:54:13.573Z,1013.21
2019-04-20T00:55:11.099Z,1013.21
2019-04-20T00:56:10.019Z,1013.24
2019-04-20T00:57:20.061Z,1013.25
2019-04-20T00:58:15.987Z,1013.23
2019-04-20T00:59:16.649Z,1013.21
2019-04-20T01:00:21.097Z,1013.18
2019-04-20T01:01:19.772Z,1013.2
2019-04-20T01:02:16.732Z,1013.21
2019-04-20T01:03:13.232Z,1013.19
2019-04-20T01:04:19.701Z,1013.17
2019-04-20T01:05:15.436Z,1013.18
2019-04-20T01:06:16.109Z,1013.2
2019-04-20T01:07:08.123Z,1013.22
2019-04-20T01:07:56.911Z,1013.2
2019-04-20T01:08:52.982Z,1013.11
2019-04-20T01:09:51.963Z,1013.17
2019-04-20T01:10:53.153Z,1013.12
2019-04-20T01:11:49.789Z,1013.16
2019-04-20T01:12:47.461Z,1013.15
2019-04-20T01:13:50.783Z,1013.17
2019-04-20T01:14:50.109Z,1013.14
2019-04-20T01:15:51.402Z,1013.15
2019-04-20T01:16:48.983Z,1013.15
2019-04-20T01:17:41.446Z,1013.14
2019-04-20T01:18:38.910Z,1013.17
2019-04-20T01:19:37.458Z,1013.18
2019-04-20T01:20:36.489Z,1013.19
2019-04-20T01:21:35.404Z,1013.19
2019-04-20T01:22:40.056Z,1013.22
2019-04-20T01:23:39.972Z,1013.15
2019-04-20T01:24:35.278Z,1013.15
2019-04-20T01:25:35.252Z,1013.19
2019-04-20T01:26:29.276Z,1013.18
2019-04-20T01:27:39.496Z,1013.18
2019-04-20T01:28:41.722Z,1013.22
2019-04-20T01:29:32.218Z,1013.21
2019-04-20T01:30:30.027Z,1013.24
2019-04-20T01:31:29.191Z,1013.26
2019-04-20T01:32:29.601Z,1013.26
2019-04-20T01:33:31.552Z,1013.21
2019-04-20T01:34:30.904Z,1013.21
2019-04-20T01:35:29.906Z,1013.22
2019-04-20T01:36:30.610Z,1013.23
2019-04-20T01:37:25.638Z,1013.19
2019-04-20T01:38:25.914Z,1013.22
2019-04-20T01:39:20.450Z,1013.22
2019-04-20T01:40:09.862Z,1013.23
2019-04-20T01:41:07.508Z,1013.28
2019-04-20T01:42:06.483Z,1013.21
2019-04-20T01:43:05.652Z,1013.31
2019-04-20T01:44:03.330Z,1013.31
2019-04-20T01:45:05.657Z,1013.34
2019-04-20T01:46:08.058Z,1013.35
2019-04-20T01:47:02.892Z,1013.28
2019-04-20T01:47:59.860Z,1013.27
2019-04-20T01:48:59.044Z,1013.29
2019-04-20T01:50:03.257Z,1013.31
2019-04-20T01:51:02.077Z,1013.31
2019-04-20T01:52:03.666Z,1013.27
2019-04-20T01:53:01.410Z,1013.29
2019-04-20T01:54:05.089Z,1013.32
2019-04-20T01:55:04.583Z,1013.37
2019-04-20T01:56:00.965Z,1013.33
2019-04-20T01:56:57.914Z,1013.38
2019-04-20T01:58:04.715Z,1013.37
2019-04-20T01:58:58.038Z,1013.39
2019-04-20T01:59:54.020Z,1013.41
2019-04-20T02:00:43.864Z,1013.4
2019-04-20T02:01:42.430Z,1013.47
2019-04-20T02:02:44.748Z,1013.46
2019-04-20T02:03:42.989Z,1013.48
2019-04-20T02:04:39.335Z,1013.51
2019-04-20T02:05:37.048Z,1013.5
2019-04-20T02:06:39.763Z,1013.52
2019-04-20T02:07:38.688Z,1013.49
2019-04-20T02:08:31.372Z,1013.47
2019-04-20T02:09:31.100Z,1013.46
2019-04-20T02:10:36.827Z,1013.4
2019-04-20T02:11:32.649Z,1013.4
2019-04-20T02:12:28.972Z,1013.38
2019-04-20T02:13:26.023Z,1013.37
2019-04-20T02:14:28.519Z,1013.38
2019-04-20T02:15:29.916Z,1013.37
2019-04-20T02:16:28.451Z,1013.35
2019-04-20T02:17:27.809Z,1013.43
2019-04-20T02:18:29.874Z,1013.36
2019-04-20T02:19:26.194Z,1013.4
2019-04-20T02:20:32.881Z,1013.45
2019-04-20T02:21:27.285Z,1013.42
2019-04-20T02:22:29.681Z,1013.4
2019-04-20T02:23:20.837Z,1013.41
2019-04-20T02:24:11.282Z,1013.44
2019-04-20T02:25:08.016Z,1013.46
2019-04-20T02:26:07.115Z,1013.43
2019-04-20T02:27:06.170Z,1013.45
2019-04-20T02:28:21.325Z,1013.45
2019-04-20T02:29:23.399Z,1013.45
2019-04-20T02:30:29.629Z,1013.46
2019-04-20T02:31:54.837Z,1013.48
2019-04-20T02:32:26.192Z,1013.52
2019-04-20T02:34:31.356Z,1013.52
2019-04-20T02:35:23.725Z,1013.52
2019-04-20T02:36:27.230Z,1013.48
2019-04-20T02:37:23.419Z,1013.46
2019-04-20T02:38:21.377Z,1013.45
2019-04-20T02:39:28.533Z,1013.45
2019-04-20T02:42:07.659Z,1013.43
2019-04-20T02:45:32.461Z,1013.47
2019-04-20T02:46:24.038Z,1013.45
2019-04-20T02:47:20.735Z,1013.44
2019-04-20T02:48:13.231Z,1013.41
2019-04-20T02:49:35.224Z,1013.42
2019-04-20T02:50:18.820Z,1013.44
2019-04-20T02:51:12.298Z,1013.39
2019-04-20T02:52:12.114Z,1013.38
2019-04-20T02:54:33.815Z,1013.4
2019-04-20T02:55:29.641Z,1013.37
2019-04-20T02:56:38.931Z,1013.41
2019-04-20T02:58:30.957Z,1013.46
2019-04-20T03:00:23.487Z,1013.45
2019-04-20T03:01:14.534Z,1013.44
2019-04-20T03:02:10.034Z,1013.46
2019-04-20T03:03:03.093Z,1013.45
2019-04-20T03:03:55.880Z,1013.4
2019-04-20T03:05:02.337Z,1013.43
2019-04-20T03:06:04.328Z,1013.42
2019-04-20T03:07:03.565Z,1013.42
2019-04-20T03:08:02.095Z,1013.39
2019-04-20T03:09:08.539Z,1013.39
2019-04-20T03:10:00.606Z,1013.44
2019-04-20T03:11:07.851Z,1013.46
2019-04-20T03:12:03.110Z,1013.44
2019-04-20T03:13:02.695Z,1013.37
2019-04-20T03:13:57.686Z,1013.39
2019-04-20T03:14:47.163Z,1013.38
2019-04-20T03:15:54.643Z,1013.41
2019-04-20T03:16:50.132Z,1013.4
2019-04-20T03:17:50.641Z,1013.41
2019-04-20T03:18:44.177Z,1013.47
2019-04-20T03:19:44.228Z,1013.44
2019-04-20T03:20:51.753Z,1013.42
2019-04-20T03:21:51.146Z,1013.39
2019-04-20T03:23:49.811Z,1013.43
2019-04-20T03:24:58.710Z,1013.37
2019-04-20T03:25:42.542Z,1013.43
2019-04-20T03:26:36.324Z,1013.43
2019-04-20T03:27:35.418Z,1013.38
2019-04-20T03:28:34.472Z,1013.43
2019-04-20T03:29:36.748Z,1013.44
2019-04-20T03:31:14.982Z,1013.43
2019-04-20T03:31:52.104Z,1013.43
2019-04-20T03:33:48.877Z,1013.41
2019-04-20T03:35:48.854Z,1013.42
2019-04-20T03:36:33.382Z,1013.5
2019-04-20T03:37:30.430Z,1013.45
2019-04-20T03:38:19.616Z,1013.39
2019-04-20T03:39:21.792Z,1013.38
2019-04-20T03:40:12.422Z,1013.44
2019-04-20T03:41:11.614Z,1013.43
2019-04-20T03:41:59.143Z,1013.46
2019-04-20T03:42:56.994Z,1013.49
2019-04-20T03:44:03.053Z,1013.44
2019-04-20T03:45:00.378Z,1013.48
2019-04-20T03:45:59.412Z,1013.48
2019-04-20T03:46:57.302Z,1013.49
2019-04-20T03:48:00.580Z,1013.5
2019-04-20T03:49:03.553Z,1013.48
2019-04-20T03:50:10.346Z,1013.51
2019-04-20T03:51:01.932Z,1013.47
2019-04-20T03:52:02.104Z,1013.53
2019-04-20T03:53:58.574Z,1013.47
2019-04-20T03:54:49.952Z,1013.49
2019-04-20T03:55:52.505Z,1013.45
2019-04-20T03:56:53.996Z,1013.44
2019-04-20T03:57:57.023Z,1013.46
2019-04-20T03:58:50.141Z,1013.48
2019-04-20T03:59:48.322Z,1013.51
2019-04-20T04:00:49.645Z,1013.46
2019-04-20T04:02:14.464Z,1013.46
2019-04-20T04:03:01.282Z,1013.51
2019-04-20T04:03:52.937Z,1013.5
2019-04-20T04:04:43.703Z,1013.49
2019-04-20T04:05:40.666Z,1013.48
2019-04-20T04:06:33.931Z,1013.5
2019-04-20T04:07:32.188Z,1013.46
2019-04-20T04:08:30.261Z,1013.45
2019-04-20T04:09:28.507Z,1013.46
2019-04-20T04:10:30.079Z,1013.42
2019-04-20T04:11:34.725Z,1013.39
2019-04-20T04:12:22.529Z,1013.45
2019-04-20T04:13:15.011Z,1013.41
2019-04-20T04:14:13.658Z,1013.38
2019-04-20T04:15:12.661Z,1013.4
2019-04-20T04:16:13.662Z,1013.41
2019-04-20T04:17:13.204Z,1013.42
2019-04-20T04:18:15.540Z,1013.42
2019-04-20T04:19:15.766Z,1013.38
2019-04-20T04:20:11.567Z,1013.46
2019-04-20T04:21:08.836Z,1013.47
2019-04-20T04:22:15.711Z,1013.43
2019-04-20T04:23:18.955Z,1013.42
2019-04-20T04:24:12.714Z,1013.46
2019-04-20T04:25:12.020Z,1013.49
2019-04-20T04:26:15.919Z,1013.44
2019-04-20T04:27:08.718Z,1013.49
2019-04-20T04:28:10.454Z,1013.43
2019-04-20T04:29:12.278Z,1013.43
2019-04-20T04:30:09.369Z,1013.5
2019-04-20T04:32:11.830Z,1013.48
2019-04-20T04:33:31.985Z,1013.45
2019-04-20T04:34:02.188Z,1013.51
2019-04-20T04:35:01.442Z,1013.48
2019-04-20T04:35:56.365Z,1013.55
2019-04-20T04:37:03.096Z,1013.5
2019-04-20T04:38:00.603Z,1013.52
2019-04-20T04:39:02.422Z,1013.52
2019-04-20T04:39:58.588Z,1013.56
2019-04-20T04:41:01.732Z,1013.55
2019-04-20T04:42:01.021Z,1013.61
2019-04-20T04:42:57.637Z,1013.6
2019-04-20T04:43:49.084Z,1013.6
2019-04-20T04:44:43.172Z,1013.62
2019-04-20T04:45:31.846Z,1013.69
2019-04-20T04:46:29.282Z,1013.67
2019-04-20T04:47:28.428Z,1013.68
2019-04-20T04:48:31.918Z,1013.64
2019-04-20T04:49:30.783Z,1013.66
2019-04-20T04:50:26.502Z,1013.59
2019-04-20T04:51:27.748Z,1013.62
2019-04-20T04:52:28.619Z,1013.6
2019-04-20T04:53:29.714Z,1013.66
2019-04-20T04:54:27.820Z,1013.64
2019-04-20T04:55:25.543Z,1013.66
2019-04-20T04:56:18.812Z,1013.66
2019-04-20T04:57:15.641Z,1013.66
2019-04-20T04:58:13.110Z,1013.7
2019-04-20T04:59:12.746Z,1013.71
2019-04-20T05:00:17.537Z,1013.69
2019-04-20T05:01:14.337Z,1013.72
2019-04-20T05:02:07.729Z,1013.72
2019-04-20T05:03:22.843Z,1013.74
2019-04-20T05:04:39.870Z,1013.75
2019-04-20T05:05:23.615Z,1013.75
2019-04-20T05:06:18.221Z,1013.81
2019-04-20T05:07:11.102Z,1013.77
2019-04-20T05:08:09.991Z,1013.84
2019-04-20T05:09:02.275Z,1013.85
2019-04-20T05:09:57.014Z,1013.86
2019-04-20T05:10:56.183Z,1013.88
2019-04-20T05:11:59.594Z,1013.89
2019-04-20T05:12:53.465Z,1013.86
2019-04-20T05:13:58.235Z,1013.87
2019-04-20T05:15:00.928Z,1013.86
2019-04-20T05:16:03.345Z,1013.87
2019-04-20T05:17:01.401Z,1013.87
2019-04-20T05:18:05.631Z,1013.92
2019-04-20T05:19:09.081Z,1013.89
2019-04-20T05:20:02.006Z,1013.87
2019-04-20T05:20:58.306Z,1013.92
2019-04-20T05:22:03.807Z,1013.92
2019-04-20T05:22:55.721Z,1013.88
2019-04-20T05:25:35.789Z,1013.84
2019-04-20T05:26:35.751Z,1013.9
2019-04-20T05:27:34.333Z,1013.88
2019-04-20T05:28:27.241Z,1013.87
2019-04-20T05:29:19.293Z,1013.88
2019-04-20T05:30:12.247Z,1013.89
2019-04-20T05:31:12.036Z,1013.9
2019-04-20T05:32:14.574Z,1013.86
2019-04-20T05:33:16.796Z,1013.91
2019-04-20T05:34:24.048Z,1013.85
2019-04-20T05:35:26.266Z,1013.9
2019-04-20T05:36:21.682Z,1013.87
2019-04-20T05:47:16.810Z,1013.95
2019-04-20T05:48:11.621Z,1013.97
2019-04-20T05:49:16.886Z,1013.92
2019-04-20T05:50:04.818Z,1013.94
2019-04-20T05:51:07.109Z,1013.96
2019-04-20T05:52:15.039Z,1013.97
2019-04-20T05:53:07.078Z,1013.97
2019-04-20T05:54:07.053Z,1013.96
2019-04-20T05:55:02.151Z,1014.03
2019-04-20T05:55:59.065Z,1014.05
2019-04-20T05:57:05.012Z,1014.07
2019-04-20T05:58:01.766Z,1014.02
2019-04-20T05:58:56.250Z,1014.09
2019-04-20T06:00:01.437Z,1014.1
2019-04-20T06:01:00.064Z,1014.13
2019-04-20T06:01:57.283Z,1014.09
2019-04-20T06:02:53.631Z,1014.09
2019-04-20T06:03:48.631Z,1014.1
2019-04-20T06:04:59.522Z,1014.1
2019-04-20T06:05:57.710Z,1014.08
2019-04-20T06:06:48.935Z,1014.17
2019-04-20T06:07:47.155Z,1014.03
2019-04-20T06:09:05.050Z,1014.09
2019-04-20T06:09:46.081Z,1014.05
2019-04-20T06:10:44.805Z,1014.1
2019-04-20T06:11:54.875Z,1014.11
2019-04-20T06:12:39.845Z,1014.18
2019-04-20T06:13:32.260Z,1014.13
2019-04-20T06:14:27.579Z,1014.13
2019-04-20T06:15:27.362Z,1014.14
2019-04-20T06:16:40.073Z,1014.14
2019-04-20T06:17:31.217Z,1014.19
2019-04-20T06:18:23.962Z,1014.13
2019-04-20T06:20:30.906Z,1014.18
2019-04-20T06:21:41.000Z,1014.17
2019-04-20T06:22:30.684Z,1014.09
2019-04-20T06:23:32.145Z,1014.16
2019-04-20T06:24:31.725Z,1014.17
2019-04-20T06:25:38.743Z,1014.18
2019-04-20T06:27:20.920Z,1014.17
2019-04-20T06:28:12.267Z,1014.16
2019-04-20T06:29:13.596Z,1014.23
2019-04-20T06:30:10.824Z,1014.25
2019-04-20T06:31:17.835Z,1014.18
2019-04-20T06:32:20.073Z,1014.22
2019-04-20T06:33:12.669Z,1014.26
2019-04-20T06:35:09.106Z,1014.21
2019-04-20T06:36:27.312Z,1014.28
2019-04-20T06:37:00.385Z,1014.19
2019-04-20T06:38:09.782Z,1014.25
2019-04-20T06:39:07.737Z,1014.28
2019-04-20T06:40:03.345Z,1014.25
2019-04-20T06:41:11.621Z,1014.22
2019-04-20T06:42:14.613Z,1014.22
2019-04-20T06:42:59.550Z,1014.26
2019-04-20T06:44:00.423Z,1014.26
2019-04-20T06:44:56.697Z,1014.33
2019-04-20T06:45:56.391Z,1014.29
2019-04-20T06:47:14.195Z,1014.33
2019-04-20T06:47:56.933Z,1014.33
2019-04-20T06:48:51.167Z,1014.37
2019-04-20T06:50:06.109Z,1014.35
2019-04-20T06:50:43.823Z,1014.36
2019-04-20T06:51:47.222Z,1014.36
2019-04-20T06:52:36.577Z,1014.4
2019-04-20T06:53:43.268Z,1014.4
2019-04-20T06:54:41.743Z,1014.47
2019-04-20T06:55:42.628Z,1014.42
2019-04-20T06:56:40.611Z,1014.44
2019-04-20T06:57:39.596Z,1014.38
2019-04-20T06:58:43.135Z,1014.38
2019-04-20T06:59:37.418Z,1014.4
2019-04-20T07:02:21.651Z,1014.48
2019-04-20T07:03:13.483Z,1014.53
2019-04-20T07:04:33.164Z,1014.39
2019-04-20T07:05:11.650Z,1014.42
2019-04-20T07:06:28.289Z,1014.47
2019-04-20T07:07:13.971Z,1014.43
2019-04-20T07:08:20.248Z,1014.39
2019-04-20T07:09:30.645Z,1014.41
2019-04-20T07:10:13.156Z,1014.47
2019-04-20T07:11:03.638Z,1014.45
2019-04-20T07:11:56.436Z,1014.36
2019-04-20T07:12:55.066Z,1014.37
2019-04-20T07:13:46.725Z,1014.41
2019-04-20T07:14:46.800Z,1014.43
2019-04-20T07:15:49.270Z,1014.37
2019-04-20T07:16:51.029Z,1014.41
2019-04-20T07:17:56.904Z,1014.42
2019-04-20T07:18:54.435Z,1014.39
2019-04-20T07:19:49.696Z,1014.44
2019-04-20T07:20:55.204Z,1014.44
2019-04-20T07:22:01.654Z,1014.47
2019-04-20T07:22:59.841Z,1014.48
2019-04-20T07:23:46.354Z,1014.41
2019-04-20T07:24:51.547Z,1014.37
2019-04-20T07:26:01.708Z,1014.38
2019-04-20T07:26:43.914Z,1014.39
2019-04-20T07:27:39.898Z,1014.4
2019-04-20T07:28:44.930Z,1014.38
2019-04-20T07:29:40.411Z,1014.41
2019-04-20T07:30:34.541Z,1014.45
2019-04-20T07:31:29.147Z,1014.43
2019-04-20T07:32:30.021Z,1014.4
2019-04-20T07:33:31.983Z,1014.34
2019-04-20T07:34:25.959Z,1014.38
2019-04-20T07:35:30.144Z,1014.34
2019-04-20T07:36:32.091Z,1014.34
2019-04-20T07:39:27.605Z,1014.34
2019-04-20T07:40:20.014Z,1014.42
2019-04-20T07:41:25.819Z,1014.3
2019-04-20T07:42:22.512Z,1014.33
2019-04-20T07:43:14.491Z,1014.38
2019-04-20T07:44:17.955Z,1014.39
2019-04-20T07:45:20.965Z,1014.33
2019-04-20T07:46:20.422Z,1014.35
2019-04-20T07:47:21.634Z,1014.27
2019-04-20T07:49:12.533Z,1014.26
2019-04-20T07:50:04.309Z,1014.27
2019-04-20T07:50:57.869Z,1014.25
2019-04-20T07:51:49.043Z,1014.36
2019-04-20T07:52:56.235Z,1014.28
2019-04-20T07:54:09.949Z,1014.34
2019-04-20T07:55:25.588Z,1014.28
2019-04-20T07:56:16.161Z,1014.25
2019-04-20T07:56:58.398Z,1014.23
2019-04-20T07:57:53.565Z,1014.2
2019-04-20T07:58:45.867Z,1014.28
2019-04-20T07:59:55.717Z,1014.25
2019-04-20T08:01:01.186Z,1014.24
2019-04-20T08:02:00.398Z,1014.28
2019-04-20T08:02:57.084Z,1014.22
2019-04-20T08:03:55.416Z,1014.24
2019-04-20T08:04:46.958Z,1014.22
2019-04-20T08:05:39.078Z,1014.23
2019-04-20T08:06:36.616Z,1014.19
2019-04-20T08:07:38.919Z,1014.23
2019-04-20T08:08:37.261Z,1014.16
2019-04-20T08:09:32.340Z,1014.19
2019-04-20T08:10:37.921Z,1014.19
2019-04-20T08:11:37.794Z,1014.2
2019-04-20T08:12:40.105Z,1014.15
2019-04-20T08:14:36.607Z,1014.22
2019-04-20T08:15:42.406Z,1014.21
2019-04-20T08:16:46.002Z,1014.39
2019-04-20T08:17:36.884Z,1014.23
2019-04-20T08:18:30.859Z,1014.27
2019-04-20T08:19:27.088Z,1014.17
2019-04-20T08:20:24.414Z,1014.32
2019-04-20T08:21:28.254Z,1014.22
2019-04-20T08:22:26.429Z,1014.21
2019-04-20T08:23:22.872Z,1014.25
2019-04-20T08:24:21.146Z,1014.31
2019-04-20T08:25:13.199Z,1014.23
2019-04-20T08:26:08.321Z,1014.21
2019-04-20T08:27:02.650Z,1014.2
2019-04-20T08:27:57.107Z,1014.2
2019-04-20T08:29:01.528Z,1014.26
2019-04-20T08:30:06.344Z,1014.23
2019-04-20T08:31:08.720Z,1014.32
2019-04-20T08:32:11.339Z,1014.23
2019-04-20T08:33:02.371Z,1014.22
2019-04-20T08:34:18.359Z,1014.23
2019-04-20T08:35:13.715Z,1014.24
2019-04-20T08:36:10.576Z,1014.2
2019-04-20T08:37:05.805Z,1014.19
2019-04-20T08:38:23.805Z,1014.22
2019-04-20T08:40:57.248Z,1014.18
2019-04-20T08:42:00.072Z,1014.19
2019-04-20T08:43:02.188Z,1014.21
2019-04-20T08:43:58.351Z,1014.21
2019-04-20T08:44:59.763Z,1014.19
2019-04-20T08:45:50.749Z,1014.23
2019-04-20T08:46:58.355Z,1014.31
2019-04-20T08:47:56.205Z,1014.22
2019-04-20T08:48:50.551Z,1014.21
2019-04-20T08:49:48.996Z,1014.2
2019-04-20T08:50:44.870Z,1014.18
2019-04-20T08:51:49.281Z,1014.13
2019-04-20T08:53:03.290Z,1014.16
2019-04-20T08:53:41.686Z,1014.15
2019-04-20T08:54:33.822Z,1014.13
2019-04-20T08:55:33.024Z,1014.12
2019-04-20T08:56:28.983Z,1014.16
2019-04-20T08:57:16.647Z,1014.13
2019-04-20T08:58:15.953Z,1014.13
2019-04-20T08:59:13.840Z,1014.12
2019-04-20T09:00:13.162Z,1014.12
2019-04-20T09:01:18.259Z,1014.08
2019-04-20T09:02:12.295Z,1014.08
2019-04-20T09:03:15.813Z,1014.04
2019-04-20T09:04:13.174Z,1014.06
2019-04-20T09:05:13.449Z,1014.09
2019-04-20T09:06:15.168Z,1014.08
2019-04-20T09:07:11.371Z,1014.09
2019-04-20T09:08:10.950Z,1014.14
2019-04-20T09:09:31.641Z,1014.09
2019-04-20T09:10:23.940Z,1014.11
2019-04-20T09:11:14.009Z,1014.18
2019-04-20T09:12:14.319Z,1014.05
2019-04-20T09:13:07.984Z,1014.06
2019-04-20T09:13:58.382Z,1014.06
2019-04-20T09:14:53.021Z,1014.05
2019-04-20T09:15:51.932Z,1014.07
2019-04-20T09:16:56.909Z,1014.02
2019-04-20T09:17:54.699Z,1014.03
2019-04-20T09:18:55.421Z,1014.03
2019-04-20T09:19:55.628Z,1014.03
2019-04-20T09:20:52.575Z,1014.03
2019-04-20T09:21:50.973Z,1013.97
2019-04-20T09:22:48.968Z,1013.98
2019-04-20T09:23:55.923Z,1013.96
2019-04-20T09:24:57.459Z,1013.99
2019-04-20T09:25:59.914Z,1013.94
2019-04-20T09:26:54.096Z,1014
2019-04-20T09:27:43.455Z,1013.95
2019-04-20T09:28:42.381Z,1013.92
2019-04-20T09:29:42.435Z,1013.96
2019-04-20T09:30:42.718Z,1013.94
2019-04-20T09:31:42.996Z,1013.84
2019-04-20T09:32:43.776Z,1013.86
2019-04-20T09:33:45.741Z,1014
2019-04-20T09:34:46.318Z,1013.87
2019-04-20T09:35:42.718Z,1013.9
2019-04-20T09:36:37.371Z,1013.86
2019-04-20T09:37:42.713Z,1013.86
2019-04-20T09:38:34.657Z,1013.86
2019-04-20T09:39:30.234Z,1013.81
2019-04-20T09:40:34.801Z,1013.83
2019-04-20T09:41:39.336Z,1013.81
2019-04-20T09:42:16.568Z,1013.8
2019-04-20T09:43:16.962Z,1013.78
2019-04-20T09:44:13.808Z,1013.81
2019-04-20T09:45:17.936Z,1013.74
2019-04-20T09:46:11.790Z,1013.79
2019-04-20T09:47:10.429Z,1013.75
2019-04-20T09:48:15.608Z,1013.75
2019-04-20T09:49:18.566Z,1013.79
2019-04-20T09:50:22.189Z,1013.72
2019-04-20T09:51:24.314Z,1013.73
2019-04-20T09:52:16.747Z,1013.72
2019-04-20T09:53:13.725Z,1013.72
2019-04-20T09:54:07.521Z,1013.75
2019-04-20T09:55:10.195Z,1013.68
2019-04-20T09:56:15.193Z,1013.65
2019-04-20T09:57:13.031Z,1013.66
2019-04-20T09:58:08.084Z,1013.63
2019-04-20T09:59:12.045Z,1013.61
2019-04-20T10:00:11.531Z,1013.67
2019-04-20T10:01:05.110Z,1013.61
2019-04-20T10:02:01.819Z,1013.64
2019-04-20T10:02:50.455Z,1013.7
2019-04-20T10:03:50.144Z,1013.66
2019-04-20T10:04:47.304Z,1013.62
2019-04-20T10:05:45.474Z,1013.62
2019-04-20T10:06:43.923Z,1013.59
2019-04-20T10:07:43.899Z,1013.67
2019-04-20T10:08:49.097Z,1013.7
2019-04-20T10:09:44.512Z,1013.64
2019-04-20T10:10:41.997Z,1013.55
2019-04-20T10:11:38.262Z,1013.55
2019-04-20T10:12:35.865Z,1013.61
2019-04-20T10:13:34.457Z,1013.54
2019-04-20T10:14:33.136Z,1013.58
2019-04-20T10:15:32.923Z,1013.5
2019-04-20T10:16:31.467Z,1013.41
2019-04-20T10:17:31.404Z,1013.45
2019-04-20T10:18:28.033Z,1013.5
2019-04-20T10:19:30.743Z,1013.47
2019-04-20T10:20:30.893Z,1013.41
2019-04-20T10:21:23.676Z,1013.53
2019-04-20T10:22:22.527Z,1013.42
2019-04-20T10:23:20.792Z,1013.42
2019-04-20T10:24:19.307Z,1013.41
2019-04-20T10:25:18.287Z,1013.42
2019-04-20T10:26:16.883Z,1013.35
2019-04-20T10:27:16.693Z,1013.45
2019-04-20T10:28:14.055Z,1013.39
2019-04-20T10:29:13.233Z,1013.46
2019-04-20T10:30:12.418Z,1013.41
2019-04-20T10:31:10.638Z,1013.36
2019-04-20T10:32:12.410Z,1013.31
2019-04-20T10:33:07.721Z,1013.44
2019-04-20T10:34:05.758Z,1013.37
2019-04-20T10:35:04.634Z,1013.43
2019-04-20T10:36:03.520Z,1013.4
2019-04-20T10:37:01.746Z,1013.43
2019-04-20T10:38:00.235Z,1013.49
2019-04-20T10:38:58.788Z,1013.4
2019-04-20T10:39:58.505Z,1013.38
2019-04-20T10:41:05.838Z,1013.31
2019-04-20T10:41:58.746Z,1013.38
2019-04-20T10:42:53.468Z,1013.32
2019-04-20T10:43:53.131Z,1013.3
2019-04-20T10:44:53.603Z,1013.31
2019-04-20T10:45:49.355Z,1013.6
2019-04-20T10:46:49.127Z,1013.38
2019-04-20T10:47:47.286Z,1013.33
2019-04-20T10:50:27.132Z,1013.36
2019-04-20T10:51:25.911Z,1013.33
2019-04-20T10:52:23.668Z,1013.3
2019-04-20T10:53:23.510Z,1013.33
2019-04-20T10:54:22.441Z,1013.34
2019-04-20T10:55:20.718Z,1013.34
2019-04-20T10:56:19.025Z,1013.29
2019-04-20T10:57:17.409Z,1013.33
2019-04-20T11:19:03.154Z,1013.09
2019-04-20T11:20:01.284Z,1013.08
2019-04-20T11:20:59.419Z,1013.06
2019-04-20T11:21:58.551Z,1013
2019-04-20T11:22:56.514Z,1013.02
2019-04-20T11:23:56.212Z,1013.06
2019-04-20T11:24:54.281Z,1013.07
2019-04-20T11:25:52.560Z,1013.05
2019-04-20T11:26:52.065Z,1013.01
2019-04-20T11:27:50.118Z,1013.02
2019-04-20T11:28:48.808Z,1012.92
2019-04-20T11:29:47.478Z,1012.99
2019-04-20T11:30:46.182Z,1013.02
2019-04-20T11:31:49.137Z,1012.97
2019-04-20T11:32:44.286Z,1012.92
2019-04-20T11:33:42.490Z,1012.97
2019-04-20T11:34:42.312Z,1013.02
2019-04-20T11:35:41.502Z,1012.96
2019-04-20T11:36:39.132Z,1012.92
2019-04-20T11:37:37.298Z,1012.92
2019-04-20T11:38:35.317Z,1013.02
2019-04-20T11:39:34.890Z,1012.95
2019-04-20T11:40:32.890Z,1012.85
2019-04-20T11:41:33.765Z,1012.93
2019-04-20T11:42:29.922Z,1012.97
2019-04-20T11:43:29.280Z,1012.92
2019-04-20T11:44:30.121Z,1012.89
2019-04-20T11:45:26.695Z,1012.83
2019-04-20T11:46:24.918Z,1012.97
2019-04-20T11:47:22.976Z,1012.91
2019-04-20T11:48:21.537Z,1012.88
2019-04-20T11:49:21.581Z,1012.82
2019-04-20T11:50:19.814Z,1012.81
2019-04-20T11:51:17.680Z,1012.78
2019-04-20T11:52:19.416Z,1012.81
2019-04-20T11:53:15.370Z,1012.75
2019-04-20T11:54:14.571Z,1012.79
2019-04-20T11:55:12.644Z,1012.77
2019-04-20T11:56:14.294Z,1012.77
2019-04-20T11:57:09.690Z,1012.74
2019-04-20T11:58:08.409Z,1012.81
2019-04-20T11:59:07.294Z,1012.76
2019-04-20T12:00:05.539Z,1012.67
2019-04-20T12:01:10.267Z,1012.73
2019-04-20T12:02:05.539Z,1012.65
2019-04-20T12:03:09.509Z,1012.63
2019-04-20T12:04:06.756Z,1012.63
2019-04-20T12:05:12.597Z,1012.61
2019-04-20T12:06:00.904Z,1012.62
2019-04-20T12:06:57.032Z,1012.59
2019-04-20T12:07:55.397Z,1012.56
2019-04-20T12:08:53.224Z,1012.56
2019-04-20T12:09:51.749Z,1012.62
2019-04-20T12:10:54.662Z,1012.61
2019-04-20T12:12:01.918Z,1012.56
2019-04-20T12:12:51.887Z,1012.56
2019-04-20T12:13:46.874Z,1012.57
2019-04-20T12:14:46.397Z,1012.49
2019-04-20T12:15:43.797Z,1012.56
2019-04-20T12:16:43.629Z,1012.47
2019-04-20T12:17:41.738Z,1012.42
2019-04-20T12:18:39.470Z,1012.47
2019-04-20T12:19:38.053Z,1012.49
2019-04-20T12:20:36.907Z,1012.46
2019-04-20T12:21:36.577Z,1012.48
2019-04-20T12:22:34.508Z,1012.49
2019-04-20T12:23:33.989Z,1012.41
2019-04-20T12:24:31.399Z,1012.44
2019-04-20T12:25:32.614Z,1012.55
2019-04-20T12:26:29.007Z,1012.43
2019-04-20T12:27:27.047Z,1012.3
2019-04-20T12:28:25.648Z,1012.33
2019-04-20T12:29:25.709Z,1012.41
2019-04-20T12:30:23.870Z,1012.39
2019-04-20T12:31:24.461Z,1012.34
2019-04-20T12:32:21.785Z,1012.29
2019-04-20T12:33:19.205Z,1012.26
2019-04-20T12:34:18.125Z,1012.35
2019-04-20T12:35:16.599Z,1012.32
2019-04-20T12:36:16.309Z,1012.26
2019-04-20T12:37:13.755Z,1012.3
2019-04-20T12:38:12.717Z,1012.28
2019-04-20T12:39:11.154Z,1012.29
2019-04-20T12:40:09.752Z,1012.24
2019-04-20T12:41:09.916Z,1012.24
2019-04-20T12:42:09.335Z,1012.21
2019-04-20T12:43:06.836Z,1012.24
2019-04-20T12:44:05.808Z,1012.26
2019-04-20T12:45:03.897Z,1012.3
2019-04-20T12:46:02.174Z,1012.23
2019-04-20T12:47:01.513Z,1012.2
2019-04-20T12:47:59.627Z,1012.24
2019-04-20T12:48:57.783Z,1012.19
2019-04-20T12:49:56.726Z,1012.15